Time;durP1;ratioP1;P1;durP2;ratioP2;P2;SDS_P1;SDS_P2;PMS_P1;PMS_P2;Temp;Humidity;BMP_temperature;BMP_pressure;BME280_temperature;BME280_humidity;BME280_pressure;Samples;Min_cycle;Max_cycle;Signal;HPM_P1;HPM_P2
2022/10/05 00:01:26;;;;;;;12.50;6.63;;;13.00;1.00;;;;;;5079198;28;20439;-45
2022/10/05 00:03:57;;;;;;;15.00;7.30;;;13.10;1.00;;;;;;5070810;28;20469;-46
2022/10/05 00:06:25;;;;;;;10.00;7.27;;;13.10;1.00;;;;;;5070570;28;20459;-45
2022/10/05 00:08:51;;;;;;;13.90;7.60;;;13.10;1.00;;;;;;5073457;28;20943;-45
2022/10/05 00:11:17;;;;;;;11.67;7.83;;;13.20;1.00;;;;;;5073350;28;20443;-45
2022/10/05 00:13:43;;;;;;;11.47;7.10;;;13.10;1.00;;;;;;5082622;28;20181;-45
2022/10/05 00:16:19;;;;;;;14.07;6.83;;;13.20;1.00;;;;;;5071335;28;20435;-45
2022/10/05 00:18:51;;;;;;;11.67;6.97;;;13.20;1.00;;;;;;5071112;28;20189;-45
2022/10/05 00:21:22;;;;;;;16.23;7.27;;;13.30;1.00;;;;;;5070869;28;21168;-46
2022/10/05 00:23:49;;;;;;;18.13;7.47;;;13.30;1.00;;;;;;5069662;28;20438;-45
2022/10/05 00:26:23;;;;;;;11.33;6.80;;;13.20;1.00;;;;;;5071493;28;20590;-45
2022/10/05 00:28:50;;;;;;;11.00;6.33;;;13.30;1.00;;;;;;5070458;28;20453;-45
2022/10/05 00:31:22;;;;;;;16.77;7.30;;;13.30;1.00;;;;;;5071653;28;20480;-45
2022/10/05 00:33:48;;;;;;;12.70;6.53;;;13.30;1.00;;;;;;5083859;28;20427;-45
2022/10/05 00:36:14;;;;;;;15.47;7.60;;;13.40;1.00;;;;;;5089422;28;20435;-46
2022/10/05 00:38:41;;;;;;;11.70;7.00;;;13.40;1.00;;;;;;5089627;28;20438;-45
2022/10/05 00:41:19;;;;;;;10.57;6.87;;;13.40;1.00;;;;;;5085772;28;20466;-45
2022/10/05 00:44:09;;;;;;;13.40;7.10;;;13.50;1.00;;;;;;5089551;28;20450;-45
2022/10/05 00:47:16;;;;;;;11.50;6.90;;;13.50;1.00;;;;;;5077769;28;20422;-45
2022/10/05 00:50:07;;;;;;;11.80;6.80;;;13.50;1.00;;;;;;5088409;28;20427;-45
2022/10/05 00:52:48;;;;;;;14.93;6.80;;;13.50;1.00;;;;;;5088807;28;20508;-44
2022/10/05 00:55:28;;;;;;;10.20;6.90;;;13.50;1.00;;;;;;5075113;28;20442;-44
2022/10/05 00:58:23;;;;;;;12.80;7.87;;;13.50;1.00;;;;;;5088856;28;20484;-53
2022/10/05 01:01:10;;;;;;;14.30;6.70;;;13.50;1.00;;;;;;5087616;28;20946;-45
2022/10/05 01:03:55;;;;;;;14.73;7.40;;;13.50;1.00;;;;;;5077514;28;20537;-45
2022/10/05 01:06:39;;;;;;;9.87;6.43;;;13.50;1.00;;;;;;5089159;28;21172;-44
2022/10/05 01:09:25;;;;;;;11.27;6.53;;;13.50;1.00;;;;;;5087244;28;20435;-45
2022/10/05 01:12:00;;;;;;;15.53;7.00;;;13.50;1.00;;;;;;5089098;28;20434;-44
2022/10/05 01:14:33;;;;;;;14.10;7.00;;;13.50;1.00;;;;;;5085539;28;20519;-44
2022/10/05 01:17:08;;;;;;;10.30;6.90;;;13.40;1.00;;;;;;5089192;28;20863;-45
2022/10/05 01:19:55;;;;;;;11.53;7.67;;;13.40;1.00;;;;;;5089711;28;20426;-45
2022/10/05 01:22:39;;;;;;;12.87;6.43;;;13.40;1.00;;;;;;5089745;28;20427;-44
2022/10/05 01:25:29;;;;;;;16.80;7.17;;;13.40;1.00;;;;;;5082178;28;20504;-45
2022/10/05 01:28:08;;;;;;;12.50;6.70;;;13.40;1.00;;;;;;5089055;28;20495;-44
2022/10/05 01:30:41;;;;;;;12.03;7.60;;;13.50;1.00;;;;;;5088837;28;20912;-45
2022/10/05 01:33:42;;;;;;;17.90;7.37;;;13.60;1.00;;;;;;5087871;28;20431;-44
2022/10/05 01:36:18;;;;;;;11.60;6.90;;;13.60;1.00;;;;;;5086712;28;20502;-44
2022/10/05 01:39:01;;;;;;;11.93;7.90;;;13.60;1.00;;;;;;5088156;28;20487;-44
2022/10/05 01:41:50;;;;;;;16.40;7.40;;;13.50;1.00;;;;;;5077727;28;20778;-44
2022/10/05 01:44:41;;;;;;;12.23;6.60;;;13.50;1.00;;;;;;5089561;28;20435;-44
2022/10/05 01:47:12;;;;;;;10.40;7.30;;;13.50;1.00;;;;;;5089469;28;20431;-44
2022/10/05 01:49:55;;;;;;;12.70;7.03;;;13.60;1.00;;;;;;5088145;28;21064;-44
2022/10/05 01:52:33;;;;;;;11.73;7.30;;;13.60;1.00;;;;;;5090059;28;20459;-45
2022/10/05 01:55:29;;;;;;;10.33;6.80;;;13.50;1.00;;;;;;5088370;28;20993;-44
2022/10/05 01:58:20;;;;;;;16.80;6.77;;;13.50;1.00;;;;;;5088088;28;20449;-44
2022/10/05 02:01:00;;;;;;;12.80;6.67;;;13.50;1.00;;;;;;5088045;28;20434;-44
2022/10/05 02:03:46;;;;;;;10.73;7.10;;;13.50;1.00;;;;;;5088410;28;20501;-44
2022/10/05 02:06:20;;;;;;;16.87;7.73;;;13.50;1.00;;;;;;5087537;28;20558;-44
2022/10/05 02:08:59;;;;;;;10.43;7.23;;;13.50;1.00;;;;;;5088575;28;20438;-44
2022/10/05 02:11:25;;;;;;;13.00;7.70;;;13.50;1.00;;;;;;5089139;28;20434;-44
2022/10/05 02:13:59;;;;;;;19.30;7.90;;;13.50;1.00;;;;;;5090276;28;20808;-45
2022/10/05 02:16:37;;;;;;;13.00;7.13;;;13.50;1.00;;;;;;5084690;28;20204;-44
2022/10/05 02:19:24;;;;;;;13.33;7.00;;;13.60;1.00;;;;;;5086273;28;20815;-45
2022/10/05 02:21:58;;;;;;;13.03;7.67;;;13.60;1.00;;;;;;5093443;28;20422;-45
2022/10/05 02:24:31;;;;;;;13.30;7.20;;;13.60;1.00;;;;;;5092556;28;20431;-44
2022/10/05 02:26:58;;;;;;;15.50;7.90;;;13.50;1.00;;;;;;5091881;28;20443;-44
2022/10/05 02:29:28;;;;;;;11.93;7.00;;;13.50;1.00;;;;;;5084273;28;20786;-45
2022/10/05 02:32:05;;;;;;;10.90;6.90;;;13.60;1.00;;;;;;5089989;28;20897;-44
2022/10/05 02:34:39;;;;;;;13.07;7.00;;;13.60;1.00;;;;;;5089309;28;20851;-44
2022/10/05 02:37:33;;;;;;;10.83;7.40;;;13.60;1.00;;;;;;5092343;28;20453;-48
2022/10/05 02:40:20;;;;;;;11.57;7.33;;;13.60;1.00;;;;;;5091712;28;20435;-44
2022/10/05 02:42:54;;;;;;;11.10;6.63;;;13.60;1.00;;;;;;5090738;28;20526;-44
2022/10/05 02:45:43;;;;;;;11.90;7.20;;;13.60;1.00;;;;;;5092513;28;20548;-44
2022/10/05 02:48:18;;;;;;;13.33;7.87;;;13.50;1.00;;;;;;5091993;28;20584;-44
2022/10/05 02:50:56;;;;;;;12.73;7.17;;;13.50;1.00;;;;;;5091283;28;20904;-45
2022/10/05 02:53:29;;;;;;;11.00;6.60;;;13.50;1.00;;;;;;5073533;28;20470;-44
2022/10/05 02:56:16;;;;;;;14.20;7.53;;;13.50;1.00;;;;;;5091395;28;20804;-45
2022/10/05 02:59:19;;;;;;;10.57;7.73;;;13.60;1.00;;;;;;5091717;28;20537;-44
2022/10/05 03:02:12;;;;;;;10.30;7.07;;;13.50;1.00;;;;;;5085180;28;20438;-44
2022/10/05 03:04:53;;;;;;;14.80;7.70;;;13.50;1.00;;;;;;5072446;28;20537;-44
2022/10/05 03:07:30;;;;;;;10.93;7.23;;;13.50;1.00;;;;;;5087915;28;20427;-45
2022/10/05 03:10:21;;;;;;;11.27;7.10;;;13.50;1.00;;;;;;5079443;28;20437;-44
2022/10/05 03:13:01;;;;;;;14.57;8.03;;;13.50;1.00;;;;;;5090994;28;20512;-44
2022/10/05 03:15:48;;;;;;;11.30;7.63;;;13.50;1.00;;;;;;5090354;28;20458;-44
2022/10/05 03:18:20;;;;;;;12.83;7.47;;;13.50;1.00;;;;;;5091500;28;20435;-44
2022/10/05 03:21:02;;;;;;;12.40;7.27;;;13.50;1.00;;;;;;5092448;28;20438;-44
2022/10/05 03:23:34;;;;;;;14.53;7.70;;;13.50;1.00;;;;;;5089595;28;20435;-45
2022/10/05 03:26:32;;;;;;;13.90;7.83;;;13.60;1.00;;;;;;5090254;28;20500;-45
2022/10/05 03:29:01;;;;;;;13.53;7.53;;;13.60;1.00;;;;;;5090188;28;20428;-46
2022/10/05 03:31:39;;;;;;;17.43;8.40;;;13.60;1.00;;;;;;5091378;28;20836;-45
2022/10/05 03:34:26;;;;;;;15.10;7.60;;;13.60;1.00;;;;;;5084010;28;20527;-46
2022/10/05 03:36:59;;;;;;;9.77;6.63;;;13.60;1.00;;;;;;5089738;28;20994;-45
2022/10/05 03:39:37;;;;;;;14.00;8.60;;;13.60;1.00;;;;;;5090649;28;20449;-46
2022/10/05 03:42:31;;;;;;;10.47;7.27;;;13.60;1.00;;;;;;5090312;28;20435;-46
2022/10/05 03:45:22;;;;;;;14.30;7.57;;;13.60;1.00;;;;;;5089472;28;20466;-45
2022/10/05 03:48:08;;;;;;;9.27;6.67;;;13.60;1.00;;;;;;5077016;28;20445;-45
2022/10/05 03:50:39;;;;;;;13.40;6.90;;;13.60;1.00;;;;;;5090292;28;20438;-45
2022/10/05 03:53:29;;;;;;;11.90;8.13;;;13.60;1.00;;;;;;5090247;28;20441;-45
2022/10/05 03:56:04;;;;;;;11.97;7.80;;;13.60;1.00;;;;;;5083306;28;20439;-45
2022/10/05 03:58:48;;;;;;;14.60;8.17;;;13.60;1.00;;;;;;5089772;28;20435;-45
2022/10/05 04:01:18;;;;;;;13.93;8.20;;;13.60;1.00;;;;;;5086466;28;20492;-45
2022/10/05 04:03:54;;;;;;;13.13;8.00;;;13.60;1.00;;;;;;5089263;28;20430;-45
2022/10/05 04:06:38;;;;;;;12.43;7.63;;;13.60;1.00;;;;;;5086135;28;20466;-45
2022/10/05 04:09:12;;;;;;;16.47;8.63;;;13.60;1.00;;;;;;5090360;28;20434;-45
2022/10/05 04:11:49;;;;;;;11.13;8.03;;;13.50;1.00;;;;;;5090706;28;20417;-45
2022/10/05 04:14:33;;;;;;;12.20;8.80;;;13.60;1.00;;;;;;5089171;28;20418;-45
2022/10/05 04:17:28;;;;;;;11.70;7.80;;;13.60;1.00;;;;;;5098386;28;20445;-45
2022/10/05 04:19:59;;;;;;;11.23;8.00;;;13.70;1.00;;;;;;5088865;28;20921;-45
2022/10/05 04:22:55;;;;;;;12.40;8.50;;;13.70;1.00;;;;;;5090641;28;20423;-45
2022/10/05 04:25:29;;;;;;;15.83;7.60;;;13.70;1.00;;;;;;5074349;28;20895;-47
2022/10/05 04:28:22;;;;;;;13.23;7.83;;;13.70;1.00;;;;;;5090870;28;20434;-46
2022/10/05 04:30:51;;;;;;;13.13;8.10;;;13.70;1.00;;;;;;5090251;28;20427;-45
2022/10/05 04:33:17;;;;;;;11.73;7.90;;;13.60;1.00;;;;;;5090633;28;20427;-45
2022/10/05 04:35:56;;;;;;;20.93;8.73;;;13.70;1.00;;;;;;5089556;28;20438;-45
2022/10/05 04:39:00;;;;;;;13.77;8.23;;;13.70;1.00;;;;;;5089517;28;20246;-45
2022/10/05 04:42:12;;;;;;;10.00;7.13;;;13.70;1.00;;;;;;5074048;28;20934;-45
2022/10/05 04:44:56;;;;;;;14.13;7.50;;;13.70;1.00;;;;;;5089705;28;20469;-45
2022/10/05 04:47:36;;;;;;;13.90;8.00;;;13.70;1.00;;;;;;5088330;28;20430;-45
2022/10/05 04:50:23;;;;;;;15.60;8.50;;;13.60;5.30;;;;;;5089827;28;20431;-45
2022/10/05 04:53:00;;;;;;;14.00;8.77;;;13.70;7.90;;;;;;5090037;28;21042;-45
2022/10/05 04:55:44;;;;;;;12.43;8.30;;;13.70;13.40;;;;;;5090174;28;20471;-45
2022/10/05 04:58:34;;;;;;;15.27;8.33;;;13.70;21.80;;;;;;5089302;28;20445;-45
2022/10/05 05:01:18;;;;;;;15.80;9.20;;;13.70;28.30;;;;;;5080784;28;20456;-44
2022/10/05 05:04:02;;;;;;;17.10;10.27;;;13.70;41.70;;;;;;5088706;28;20435;-45
2022/10/05 05:06:39;;;;;;;12.93;9.20;;;13.60;49.40;;;;;;5089739;28;20502;-45
2022/10/05 05:09:13;;;;;;;14.63;8.97;;;13.70;73.70;;;;;;5089984;28;20525;-45
2022/10/05 05:11:42;;;;;;;11.23;8.00;;;13.60;91.10;;;;;;5089798;28;20453;-45
2022/10/05 05:14:21;;;;;;;17.90;9.30;;;13.70;97.40;;;;;;5088809;28;20526;-45
2022/10/05 05:17:14;;;;;;;18.17;9.20;;;13.70;95.20;;;;;;5088745;28;20441;-45
2022/10/05 05:20:11;;;;;;;14.87;9.00;;;13.70;96.00;;;;;;5043516;28;20516;-45
2022/10/05 05:22:52;;;;;;;13.30;9.33;;;13.60;99.90;;;;;;5072056;28;20510;-45
2022/10/05 05:25:18;;;;;;;20.57;9.80;;;13.60;99.90;;;;;;5089095;28;20512;-45
2022/10/05 05:27:57;;;;;;;23.07;9.70;;;13.70;99.90;;;;;;5090071;28;20799;-44
2022/10/05 05:30:41;;;;;;;14.00;9.53;;;13.70;99.90;;;;;;5087270;28;20251;-45
2022/10/05 05:33:36;;;;;;;13.03;9.23;;;13.70;99.90;;;;;;5084283;28;20430;-45
2022/10/05 05:36:08;;;;;;;15.97;9.20;;;13.70;99.90;;;;;;5088068;28;20445;-45
2022/10/05 05:38:48;;;;;;;14.57;8.97;;;13.70;99.90;;;;;;5089846;28;20951;-45
2022/10/05 05:41:28;;;;;;;16.00;10.10;;;13.70;99.90;;;;;;5088947;28;20489;-45
2022/10/05 05:44:13;;;;;;;17.83;10.13;;;13.70;99.90;;;;;;5089342;28;20876;-45
2022/10/05 05:46:45;;;;;;;14.67;9.50;;;13.60;99.90;;;;;;5089607;28;20462;-45
2022/10/05 05:49:21;;;;;;;17.87;9.20;;;13.60;99.90;;;;;;5091867;28;20535;-45
2022/10/05 05:51:57;;;;;;;19.77;9.87;;;13.70;99.90;;;;;;5088286;28;20473;-45
2022/10/05 05:54:48;;;;;;;21.13;10.90;;;13.70;99.90;;;;;;5092854;28;20450;-45
2022/10/05 05:57:39;;;;;;;19.63;10.20;;;13.70;99.90;;;;;;5094850;28;20426;-45
2022/10/05 06:00:19;;;;;;;16.50;10.60;;;13.80;99.90;;;;;;5088141;28;20438;-45
2022/10/05 06:03:15;;;;;;;20.10;10.90;;;13.80;99.90;;;;;;5082963;28;20444;-45
2022/10/05 06:05:58;;;;;;;16.97;10.40;;;13.80;99.90;;;;;;5082989;28;20481;-45
2022/10/05 06:08:35;;;;;;;17.00;10.40;;;13.80;99.90;;;;;;5089031;28;21385;-45
2022/10/05 06:11:03;;;;;;;19.27;10.60;;;13.80;99.90;;;;;;5092559;28;20470;-56
2022/10/05 06:13:37;;;;;;;17.90;10.40;;;13.80;99.90;;;;;;5093385;28;20433;-44
2022/10/05 06:16:17;;;;;;;16.80;10.53;;;13.80;99.90;;;;;;5089977;28;20492;-44
2022/10/05 06:18:49;;;;;;;15.60;9.80;;;13.80;99.90;;;;;;5093310;28;20431;-45
2022/10/05 06:21:28;;;;;;;16.17;9.57;;;13.90;99.90;;;;;;5093580;28;20423;-45
2022/10/05 06:24:10;;;;;;;20.43;10.63;;;13.90;99.90;;;;;;5092487;28;20435;-45
2022/10/05 06:26:58;;;;;;;17.83;10.13;;;13.80;99.90;;;;;;5092251;28;20462;-45
2022/10/05 06:29:49;;;;;;;17.03;9.70;;;13.90;99.90;;;;;;5092248;28;20415;-45
2022/10/05 06:32:45;;;;;;;15.73;10.27;;;13.90;99.90;;;;;;5080553;28;20499;-45
2022/10/05 06:35:32;;;;;;;14.30;9.97;;;14.00;99.90;;;;;;5092704;28;20462;-45
2022/10/05 06:38:33;;;;;;;17.20;10.43;;;13.90;99.90;;;;;;5074672;28;20473;-45
2022/10/05 06:41:32;;;;;;;16.73;10.20;;;14.00;99.90;;;;;;5094292;28;20452;-45
2022/10/05 06:44:05;;;;;;;17.50;9.90;;;14.00;99.90;;;;;;5093288;28;20475;-45
2022/10/05 06:46:55;;;;;;;17.73;9.90;;;14.10;99.90;;;;;;5093507;28;20549;-45
2022/10/05 06:49:28;;;;;;;16.33;9.57;;;14.10;99.90;;;;;;5108191;28;20414;-45
2022/10/05 06:52:23;;;;;;;18.00;10.27;;;14.20;99.90;;;;;;5093445;28;20525;-45
2022/10/05 06:55:00;;;;;;;15.03;10.17;;;14.20;99.90;;;;;;5090508;28;20449;-45
2022/10/05 06:57:44;;;;;;;17.60;10.33;;;14.20;99.90;;;;;;5079834;28;20867;-45
2022/10/05 07:00:16;;;;;;;14.90;9.93;;;14.30;99.90;;;;;;5088768;28;20431;-46
2022/10/05 07:02:44;;;;;;;16.80;10.70;;;14.30;97.70;;;;;;5094356;28;21149;-45
2022/10/05 07:05:31;;;;;;;13.30;9.97;;;14.30;98.10;;;;;;5099448;28;20466;-45
2022/10/05 07:08:00;;;;;;;16.07;10.70;;;14.30;94.00;;;;;;5114323;28;20974;-45
2022/10/05 07:10:43;;;;;;;14.50;10.07;;;14.30;93.90;;;;;;5103655;28;20431;-46
2022/10/05 07:13:08;;;;;;;15.27;9.67;;;14.30;93.50;;;;;;5093170;28;20545;-45
2022/10/05 07:15:49;;;;;;;13.20;9.30;;;14.40;70.80;;;;;;5092864;28;20514;-45
2022/10/05 07:18:36;;;;;;;17.53;10.53;;;14.40;60.40;;;;;;5093530;28;20197;-44
2022/10/05 07:21:24;;;;;;;20.03;10.40;;;14.50;63.70;;;;;;5093475;28;20454;-45
2022/10/05 07:24:03;;;;;;;15.00;10.20;;;14.50;57.80;;;;;;5101493;28;20446;-45
2022/10/05 07:26:52;;;;;;;18.13;9.97;;;14.50;51.30;;;;;;5092803;28;20534;-45
2022/10/05 07:29:22;;;;;;;14.43;9.30;;;14.50;46.90;;;;;;5086406;28;20519;-45
2022/10/05 07:32:19;;;;;;;15.40;10.37;;;14.50;44.20;;;;;;5093333;28;20502;-45
2022/10/05 07:38:25;;;;;;;15.37;8.90;;;14.60;36.60;;;;;;5047385;28;20431;-45
2022/10/05 07:41:06;;;;;;;14.80;10.30;;;14.70;13.10;;;;;;5093655;28;20419;-45
2022/10/05 07:43:38;;;;;;;13.40;8.93;;;14.70;2.40;;;;;;5092749;28;20407;-45
2022/10/05 07:46:30;;;;;;;16.00;9.67;;;14.70;10.10;;;;;;5091103;28;22089;-45
2022/10/05 07:49:03;;;;;;;15.97;10.40;;;14.70;9.40;;;;;;5084858;28;20484;-48
2022/10/05 07:52:09;;;;;;;12.13;9.03;;;14.70;25.00;;;;;;5093256;28;20473;-48
2022/10/05 07:55:01;;;;;;;17.17;9.60;;;14.70;20.90;;;;;;5069642;28;20431;-48
2022/10/05 07:57:45;;;;;;;13.93;9.27;;;14.70;25.30;;;;;;5084786;28;20451;-49
2022/10/05 08:00:26;;;;;;;20.17;10.27;;;14.70;26.40;;;;;;5088901;28;20435;-48
2022/10/05 08:03:10;;;;;;;14.63;9.37;;;14.60;26.70;;;;;;5093154;28;20433;-48
2022/10/05 08:05:40;;;;;;;15.30;9.10;;;14.70;22.00;;;;;;5091756;28;20558;-48
2022/10/05 08:08:24;;;;;;;13.50;9.20;;;14.60;24.90;;;;;;5092156;28;20441;-45
2022/10/05 08:10:53;;;;;;;11.57;9.43;;;14.70;45.50;;;;;;5087794;28;20526;-45
2022/10/05 08:13:24;;;;;;;12.83;9.90;;;14.70;38.00;;;;;;5079878;28;20427;-45
2022/10/05 08:15:55;;;;;;;20.57;9.50;;;14.70;52.10;;;;;;5090354;28;20430;-44
2022/10/05 08:18:47;;;;;;;13.70;8.73;;;14.80;48.00;;;;;;5080201;28;20761;-49
2022/10/05 08:21:15;;;;;;;15.93;9.63;;;14.90;15.00;;;;;;5075938;28;20955;-49
2022/10/05 08:23:55;;;;;;;14.57;9.00;;;15.00;1.00;;;;;;5092120;28;20447;-48
2022/10/05 08:26:35;;;;;;;15.80;9.00;;;15.00;1.00;;;;;;5090983;28;20602;-49
2022/10/05 08:29:22;;;;;;;15.07;10.00;;;15.10;1.00;;;;;;5092199;28;20769;-48
2022/10/05 08:32:20;;;;;;;13.93;9.00;;;15.10;1.00;;;;;;5082453;28;20435;-49
2022/10/05 08:35:33;;;;;;;20.70;9.37;;;15.20;1.00;;;;;;5086050;28;20492;-49
2022/10/05 08:38:02;;;;;;;15.80;9.97;;;15.30;1.00;;;;;;5041394;28;20944;-48
2022/10/05 08:40:52;;;;;;;15.23;9.20;;;15.30;1.00;;;;;;5087151;28;20536;-49
2022/10/05 08:43:49;;;;;;;17.50;9.87;;;15.40;1.00;;;;;;5089282;28;20551;-48
2022/10/05 08:46:20;;;;;;;13.77;9.50;;;15.60;1.00;;;;;;5089842;28;20466;-49
2022/10/05 08:49:23;;;;;;;20.33;10.70;;;15.60;1.00;;;;;;5090882;28;22129;-47
2022/10/05 08:52:25;;;;;;;14.90;9.07;;;15.70;1.00;;;;;;5091453;28;20470;-49
2022/10/05 08:55:09;;;;;;;12.90;9.67;;;15.80;1.00;;;;;;5089531;28;20438;-49
2022/10/05 08:57:50;;;;;;;17.67;9.90;;;15.80;1.00;;;;;;5090995;28;20571;-48
2022/10/05 09:00:24;;;;;;;14.37;9.60;;;15.70;1.00;;;;;;5091744;28;20874;-48
2022/10/05 09:03:22;;;;;;;19.43;9.73;;;15.60;1.00;;;;;;5091268;28;20911;-48
2022/10/05 09:06:16;;;;;;;14.70;8.80;;;15.40;1.00;;;;;;5091768;28;20860;-49
2022/10/05 09:08:54;;;;;;;17.60;9.13;;;15.30;1.00;;;;;;5091899;28;20742;-49
2022/10/05 09:11:42;;;;;;;12.40;8.70;;;15.50;1.00;;;;;;5092588;28;20459;-48
2022/10/05 09:14:29;;;;;;;13.47;8.67;;;15.60;1.00;;;;;;5091276;28;20493;-45
2022/10/05 09:17:18;;;;;;;19.77;9.63;;;15.80;1.00;;;;;;5091734;28;20403;-48
2022/10/05 09:20:16;;;;;;;11.87;8.40;;;16.00;1.00;;;;;;5092464;28;20831;-45
2022/10/05 09:23:06;;;;;;;11.10;8.53;;;16.20;1.00;;;;;;5092194;28;20772;-44
2022/10/05 09:25:46;;;;;;;15.33;8.97;;;16.40;1.00;;;;;;5094221;28;20515;-45
2022/10/05 09:28:36;;;;;;;10.53;8.60;;;16.60;1.00;;;;;;5081009;28;20951;-44
2022/10/05 09:31:30;;;;;;;11.80;8.90;;;16.70;1.00;;;;;;5075274;28;20416;-49
2022/10/05 09:34:22;;;;;;;13.90;9.77;;;16.60;1.00;;;;;;5075753;28;20439;-48
2022/10/05 09:36:54;;;;;;;12.13;9.23;;;16.60;1.00;;;;;;5075574;28;20412;-48
2022/10/05 09:39:33;;;;;;;18.73;9.70;;;16.60;1.00;;;;;;5076007;28;20419;-49
2022/10/05 09:42:17;;;;;;;13.83;9.90;;;16.60;1.00;;;;;;5091398;28;20431;-48
2022/10/05 09:45:18;;;;;;;12.43;9.43;;;16.60;1.00;;;;;;5087133;28;20932;-47
2022/10/05 09:48:10;;;;;;;18.43;10.10;;;16.60;1.00;;;;;;5094990;28;20445;-48
2022/10/05 09:50:59;;;;;;;12.30;10.00;;;16.60;1.00;;;;;;5094682;28;20435;-47
2022/10/05 09:53:57;;;;;;;14.90;10.57;;;16.60;1.00;;;;;;5095036;28;20506;-48
2022/10/05 09:56:50;;;;;;;15.37;9.70;;;16.50;1.00;;;;;;5095557;28;20486;-49
2022/10/05 09:59:41;;;;;;;13.30;9.93;;;16.60;1.00;;;;;;5093201;28;20440;-48
2022/10/05 10:02:26;;;;;;;14.70;8.87;;;16.70;1.00;;;;;;5082882;28;20481;-48
2022/10/05 10:05:24;;;;;;;11.97;9.13;;;16.70;1.00;;;;;;5094996;28;20463;-47
2022/10/05 10:07:58;;;;;;;17.10;8.93;;;16.70;1.00;;;;;;5075406;28;20446;-48
2022/10/05 10:10:53;;;;;;;11.63;8.97;;;16.70;1.00;;;;;;5093780;28;20430;-48
2022/10/05 10:13:50;;;;;;;12.13;8.67;;;16.60;1.00;;;;;;5094681;28;20434;-48
2022/10/05 10:16:48;;;;;;;12.50;8.30;;;16.50;1.00;;;;;;5093645;28;20826;-49
2022/10/05 10:19:48;;;;;;;16.27;9.30;;;16.40;1.00;;;;;;5094930;28;20423;-49
2022/10/05 10:22:31;;;;;;;10.87;8.23;;;16.40;1.00;;;;;;5093666;28;20446;-49
2022/10/05 10:25:31;;;;;;;11.70;8.53;;;16.40;1.00;;;;;;5086676;28;20458;-48
2022/10/05 10:28:18;;;;;;;13.50;9.03;;;16.30;1.00;;;;;;5089553;28;20447;-48
2022/10/05 10:31:02;;;;;;;14.60;7.97;;;16.30;1.00;;;;;;5092121;28;20842;-48
2022/10/05 10:33:51;;;;;;;11.00;8.07;;;16.30;1.00;;;;;;5093938;28;20932;-48
2022/10/05 10:36:38;;;;;;;13.70;8.50;;;16.20;1.00;;;;;;5077182;28;20547;-49
2022/10/05 10:39:21;;;;;;;15.10;8.53;;;16.20;1.00;;;;;;5093402;28;20439;-48
2022/10/05 10:42:23;;;;;;;9.50;8.13;;;16.10;1.00;;;;;;5090507;28;20491;-48
2022/10/05 10:44:57;;;;;;;11.17;8.60;;;16.20;1.00;;;;;;5074504;28;20461;-47
2022/10/05 10:47:43;;;;;;;14.07;8.93;;;16.20;1.00;;;;;;5093307;28;20423;-49
2022/10/05 10:50:36;;;;;;;11.57;8.97;;;16.10;1.00;;;;;;5087209;28;20443;-48
2022/10/05 10:53:39;;;;;;;11.07;8.67;;;16.10;1.00;;;;;;5091794;28;20450;-48
2022/10/05 10:56:44;;;;;;;10.40;8.27;;;16.10;1.00;;;;;;5092637;28;20438;-49
2022/10/05 10:59:22;;;;;;;11.63;8.80;;;16.00;1.00;;;;;;5093748;28;20473;-48
2022/10/05 11:02:11;;;;;;;11.90;8.30;;;16.00;1.00;;;;;;5080721;28;20480;-49
2022/10/05 11:04:42;;;;;;;9.97;8.97;;;16.00;1.00;;;;;;5086696;28;20461;-45
2022/10/05 11:07:39;;;;;;;16.83;10.10;;;16.00;1.00;;;;;;5075181;28;20454;-44
2022/10/05 11:10:17;;;;;;;9.77;8.77;;;16.00;1.00;;;;;;5092637;28;20431;-45
2022/10/05 11:12:45;;;;;;;13.80;10.50;;;16.00;1.00;;;;;;5093084;28;21365;-45
2022/10/05 11:15:38;;;;;;;16.80;9.43;;;15.90;1.00;;;;;;5092363;28;20800;-45
2022/10/05 11:18:41;;;;;;;11.53;9.10;;;15.90;1.00;;;;;;5090260;28;20440;-45
2022/10/05 11:21:10;;;;;;;13.20;9.17;;;15.90;1.00;;;;;;5079458;28;20996;-45
2022/10/05 11:23:44;;;;;;;11.10;9.00;;;15.90;1.00;;;;;;5091687;28;20801;-45
2022/10/05 11:26:24;;;;;;;10.83;7.73;;;15.90;1.00;;;;;;5093468;28;20453;-45
2022/10/05 11:28:59;;;;;;;12.10;8.67;;;16.00;1.00;;;;;;5086711;28;20445;-46
2022/10/05 11:31:40;;;;;;;15.37;8.43;;;16.00;1.00;;;;;;5092580;28;20406;-45
2022/10/05 11:34:33;;;;;;;8.70;7.80;;;16.00;1.00;;;;;;5090102;28;20947;-45
2022/10/05 11:37:26;;;;;;;12.17;8.23;;;16.00;1.00;;;;;;5092308;28;20439;-45
2022/10/05 11:40:23;;;;;;;9.00;7.90;;;16.10;1.00;;;;;;5090079;28;20427;-45
2022/10/05 11:43:17;;;;;;;8.27;7.47;;;16.10;1.00;;;;;;5088464;28;20435;-45
2022/10/05 11:45:45;;;;;;;9.90;7.90;;;16.10;1.00;;;;;;5091030;28;20459;-45
2022/10/05 11:48:20;;;;;;;8.60;7.47;;;16.20;1.00;;;;;;5092140;28;20427;-47
2022/10/05 11:51:10;;;;;;;12.97;7.93;;;16.10;1.00;;;;;;5084162;28;20440;-45
2022/10/05 11:53:46;;;;;;;10.23;7.70;;;16.20;1.00;;;;;;5087852;28;20969;-45
2022/10/05 11:56:21;;;;;;;8.53;7.73;;;16.20;1.00;;;;;;5091316;28;20431;-48
2022/10/05 11:58:58;;;;;;;8.80;7.67;;;16.20;1.00;;;;;;5090265;28;20426;-45
2022/10/05 12:01:36;;;;;;;7.60;6.90;;;16.20;1.00;;;;;;5091011;28;20435;-45
2022/10/05 12:04:14;;;;;;;10.43;7.83;;;16.20;1.00;;;;;;5092418;28;20430;-44
2022/10/05 12:06:50;;;;;;;12.37;7.40;;;16.30;1.00;;;;;;5092780;28;20544;-43
2022/10/05 12:09:34;;;;;;;7.80;6.57;;;16.40;1.00;;;;;;5093246;28;20418;-45
2022/10/05 12:12:10;;;;;;;5.73;5.23;;;16.40;1.00;;;;;;5093549;28;20399;-47
2022/10/05 12:14:41;;;;;;;6.17;5.57;;;16.50;1.00;;;;;;5093065;28;20904;-48
2022/10/05 12:17:30;;;;;;;6.63;6.03;;;16.60;1.00;;;;;;5093187;28;20427;-48
2022/10/05 12:20:22;;;;;;;6.47;5.77;;;16.60;1.00;;;;;;5092797;28;20407;-48
2022/10/05 12:23:12;;;;;;;6.37;5.30;;;16.80;1.00;;;;;;5071815;28;20463;-48
2022/10/05 12:25:49;;;;;;;6.00;5.40;;;16.90;1.00;;;;;;5082708;28;20523;-48
2022/10/05 12:28:22;;;;;;;7.73;5.63;;;17.00;1.00;;;;;;5092880;28;20835;-48
2022/10/05 12:30:54;;;;;;;5.77;5.23;;;17.00;1.00;;;;;;5092929;28;20447;-49
2022/10/05 12:33:29;;;;;;;6.10;5.20;;;17.00;1.00;;;;;;5092851;28;20524;-49
2022/10/05 12:36:12;;;;;;;6.10;4.60;;;17.00;1.00;;;;;;5092676;28;20515;-50
2022/10/05 12:39:16;;;;;;;7.67;5.50;;;17.00;1.00;;;;;;5091821;28;20415;-48
2022/10/05 12:41:48;;;;;;;6.10;4.63;;;17.10;1.00;;;;;;5076012;28;20542;-48
2022/10/05 12:44:48;;;;;;;11.30;5.13;;;17.10;1.00;;;;;;5092159;28;20439;-49
2022/10/05 12:47:32;;;;;;;7.87;4.80;;;17.20;1.00;;;;;;5092616;28;20427;-49
2022/10/05 12:50:19;;;;;;;5.37;4.07;;;17.30;1.00;;;;;;5092559;28;20586;-48
2022/10/05 13:06:25;;;;;;;8.27;4.97;;;17.50;1.00;;;;;;5108494;27;20618;-55
2022/10/05 13:08:59;;;;;;;7.90;5.73;;;17.90;1.00;;;;;;5108415;28;20933;-61
2022/10/05 13:11:27;;;;;;;8.00;4.70;;;17.90;1.00;;;;;;5108111;28;20386;-56
2022/10/05 13:14:35;;;;;;;5.60;4.93;;;17.90;1.00;;;;;;5107724;28;20462;-55
2022/10/05 13:17:24;;;;;;;8.00;5.03;;;17.90;1.00;;;;;;5107734;28;20412;-56
2022/10/05 13:20:01;;;;;;;5.40;4.83;;;17.80;1.00;;;;;;5107683;28;20854;-55
2022/10/05 13:22:39;;;;;;;7.33;4.90;;;17.80;1.00;;;;;;5109475;28;20967;-55
2022/10/05 13:25:31;;;;;;;6.87;5.00;;;17.80;1.00;;;;;;5128015;28;21256;-60
2022/10/05 13:28:22;;;;;;;8.50;5.20;;;17.80;1.00;;;;;;5094038;28;20414;-56
2022/10/05 13:31:05;;;;;;;10.57;5.53;;;17.80;1.00;;;;;;5107460;28;20433;-56
2022/10/05 13:33:49;;;;;;;6.33;4.67;;;17.80;1.00;;;;;;5103952;28;20445;-57
2022/10/05 13:36:34;;;;;;;6.73;5.30;;;17.80;1.00;;;;;;5104539;28;20945;-56
2022/10/05 13:39:37;;;;;;;5.77;5.03;;;17.70;1.00;;;;;;5104364;28;20445;-56
2022/10/05 13:42:05;;;;;;;5.70;4.70;;;17.70;1.00;;;;;;5106207;28;20848;-58
2022/10/05 13:44:37;;;;;;;6.60;4.87;;;17.60;1.00;;;;;;5105985;28;20446;-56
2022/10/05 13:47:15;;;;;;;6.03;5.43;;;17.70;1.00;;;;;;5104908;28;20432;-56
2022/10/05 13:49:55;;;;;;;7.33;5.30;;;17.70;1.00;;;;;;5103894;28;20520;-56
2022/10/05 13:52:50;;;;;;;6.20;5.23;;;17.70;1.00;;;;;;5085014;28;20430;-56
2022/10/05 13:55:28;;;;;;;5.80;5.10;;;17.70;1.00;;;;;;5099588;28;20474;-56
2022/10/05 13:58:04;;;;;;;7.37;5.50;;;17.70;1.00;;;;;;5088169;28;20791;-56
2022/10/05 14:00:37;;;;;;;6.23;5.63;;;17.70;1.00;;;;;;5089522;28;20434;-57
2022/10/05 14:03:21;;;;;;;5.93;5.33;;;17.70;1.00;;;;;;5091034;28;20439;-49
2022/10/05 14:05:56;;;;;;;5.30;4.80;;;17.70;1.00;;;;;;5084161;28;20483;-56
2022/10/05 14:08:26;;;;;;;5.90;5.40;;;17.90;1.00;;;;;;5076600;28;20446;-56
2022/10/05 14:10:53;;;;;;;5.20;4.70;;;17.90;1.00;;;;;;5073717;28;20440;-57
2022/10/05 14:13:45;;;;;;;5.20;4.70;;;17.90;1.00;;;;;;5081764;28;20443;-56
2022/10/05 14:16:20;;;;;;;6.50;5.63;;;18.00;1.00;;;;;;5080003;28;20438;-57
2022/10/05 14:19:07;;;;;;;10.20;5.13;;;17.90;1.00;;;;;;5077471;28;20431;-56
2022/10/05 14:22:06;;;;;;;10.77;4.70;;;18.00;1.00;;;;;;5077071;28;20968;-57